Time;durP1;ratioP1;P1;durP2;ratioP2;P2;SDS_P1;SDS_P2;PMS_P1;PMS_P2;Temp;Humidity;BMP_temperature;BMP_pressure;BME280_temperature;BME280_humidity;BME280_pressure;Samples;Min_cycle;Max_cycle;Signal;HPM_P1;HPM_P2
2023/12/20 00:00:57;;;;;;;6.28;2.05;;;;;;;18.37;69.52;101640.25;5003270;28;20057;-36
2023/12/20 00:03:23;;;;;;;7.70;2.20;;;;;;;18.35;69.54;101634.22;4986082;28;20375;-37
2023/12/20 00:05:49;;;;;;;9.50;2.53;;;;;;;18.33;69.28;101637.22;5007978;28;20037;-37
2023/12/20 00:08:14;;;;;;;9.13;2.60;;;;;;;18.32;69.22;101637.47;5010146;28;20042;-36
2023/12/20 00:10:40;;;;;;;7.95;2.22;;;;;;;18.31;69.11;101633.06;5010218;28;20073;-36
2023/12/20 00:13:07;;;;;;;6.82;1.88;;;;;;;18.27;69.18;101630.84;4976404;28;20034;-36
2023/12/20 00:15:32;;;;;;;7.80;2.05;;;;;;;18.27;69.44;101641.00;5002018;28;20029;-36
2023/12/20 00:17:57;;;;;;;6.63;2.28;;;;;;;18.26;69.68;101625.63;5004588;28;20388;-39
2023/12/20 00:20:23;;;;;;;9.30;2.20;;;;;;;18.24;69.53;101620.38;5002020;28;20469;-39
2023/12/20 00:22:48;;;;;;;7.53;2.13;;;;;;;18.24;69.41;101616.81;5003857;28;20096;-39
2023/12/20 00:25:14;;;;;;;7.35;2.38;;;;;;;18.22;69.58;101616.25;5003400;28;20515;-39
2023/12/20 00:27:39;;;;;;;5.43;1.95;;;;;;;18.21;69.63;101620.91;5001293;28;20070;-38
2023/12/20 00:30:05;;;;;;;5.40;2.00;;;;;;;18.21;69.38;101625.56;5002588;28;20065;-38
2023/12/20 00:32:31;;;;;;;5.78;2.10;;;;;;;18.20;69.47;101623.94;4999516;28;20244;-36
2023/12/20 00:34:56;;;;;;;7.25;2.47;;;;;;;18.18;69.54;101634.31;4997438;28;20543;-38
2023/12/20 00:37:21;;;;;;;5.30;1.95;;;;;;;18.16;69.60;101631.00;5003813;28;20027;-37
2023/12/20 00:39:47;;;;;;;7.32;2.22;;;;;;;18.15;69.58;101635.69;5012708;28;20097;-39
2023/12/20 00:42:13;;;;;;;8.65;2.30;;;;;;;18.15;69.43;101634.81;4981562;28;20069;-38
2023/12/20 00:44:38;;;;;;;5.50;2.20;;;;;;;18.13;69.64;101632.34;4982890;28;20068;-39
2023/12/20 00:47:04;;;;;;;10.05;2.60;;;;;;;18.12;69.78;101631.53;4998127;28;21116;-39
2023/12/20 00:49:29;;;;;;;6.82;2.67;;;;;;;18.10;69.67;101619.97;5000497;28;20088;-39
2023/12/20 00:51:54;;;;;;;9.15;2.30;;;;;;;18.08;69.40;101624.88;5001162;28;20030;-37
2023/12/20 00:54:20;;;;;;;6.60;2.28;;;;;;;18.09;69.56;101631.22;5000810;28;20026;-38
2023/12/20 00:56:45;;;;;;;9.68;2.47;;;;;;;18.07;69.70;101620.50;5000076;28;20778;-39
2023/12/20 00:59:10;;;;;;;9.52;2.53;;;;;;;18.05;69.44;101628.16;4976258;28;20459;-39
2023/12/20 01:01:36;;;;;;;5.28;2.00;;;;;;;18.05;69.63;101635.56;5006391;28;20116;-38
2023/12/20 01:04:01;;;;;;;8.02;2.50;;;;;;;18.05;70.01;101647.38;4998590;28;20446;-39
2023/12/20 01:06:27;;;;;;;10.00;2.63;;;;;;;18.04;69.45;101642.97;4997884;28;20032;-36
2023/12/20 01:08:52;;;;;;;6.25;2.20;;;;;;;18.02;69.71;101647.88;5005050;28;20065;-38
2023/12/20 01:11:17;;;;;;;8.43;2.25;;;;;;;18.01;69.42;101637.16;5006816;28;20635;-36
2023/12/20 01:13:43;;;;;;;7.28;2.30;;;;;;;17.99;69.36;101634.69;5007059;28;20041;-36
2023/12/20 01:16:12;;;;;;;8.63;2.60;;;;;;;17.99;69.82;101636.59;5001106;28;20105;-37
2023/12/20 01:18:38;;;;;;;8.15;2.60;;;;;;;17.97;69.70;101628.63;4988106;28;20018;-38
2023/12/20 01:21:03;;;;;;;10.93;2.50;;;;;;;17.95;69.87;101633.53;5004332;28;20033;-38
2023/12/20 01:23:29;;;;;;;7.43;2.30;;;;;;;17.94;69.66;101629.13;4987690;28;20499;-36
2023/12/20 01:25:55;;;;;;;7.88;2.65;;;;;;;17.94;69.52;101629.13;5016692;28;20549;-36
2023/12/20 01:28:20;;;;;;;9.70;2.75;;;;;;;17.93;69.62;101624.72;5010407;28;20026;-38
2023/12/20 01:30:45;;;;;;;7.32;2.40;;;;;;;17.92;69.73;101639.50;5008487;28;20255;-38
2023/12/20 01:33:11;;;;;;;5.65;2.17;;;;;;;17.91;69.52;101640.59;5016422;28;20104;-39
2023/12/20 01:35:37;;;;;;;8.35;2.35;;;;;;;17.91;69.79;101640.59;5014605;28;20060;-37
2023/12/20 01:38:02;;;;;;;8.07;2.30;;;;;;;17.88;69.55;101633.72;5002596;28;20471;-38
2023/12/20 01:40:28;;;;;;;9.65;2.33;;;;;;;17.88;69.65;101625.47;4995756;28;20127;-38
2023/12/20 01:43:08;;;;;;;10.02;2.78;;;;;;;17.88;69.49;101622.75;5005580;28;20036;-37
2023/12/20 01:45:33;;;;;;;7.13;2.33;;;;;;;17.87;69.61;101614.78;5012542;28;20037;-37
2023/12/20 01:47:59;;;;;;;5.75;1.85;;;;;;;17.87;69.77;101631.22;5014736;28;20376;-36
2023/12/20 01:50:25;;;;;;;6.95;2.05;;;;;;;17.86;69.81;101627.63;5003468;28;20384;-38
2023/12/20 01:52:52;;;;;;;9.57;2.53;;;;;;;17.86;69.67;101626.81;5013313;28;20116;-38
2023/12/20 01:55:19;;;;;;;8.75;2.67;;;;;;;17.86;69.60;101629.56;5003523;28;20492;-39
2023/12/20 01:57:45;;;;;;;7.88;2.13;;;;;;;17.86;69.58;101629.56;4991493;28;20125;-37
2023/12/20 02:00:11;;;;;;;9.27;2.72;;;;;;;17.84;69.83;101627.09;5010105;28;20044;-38
2023/12/20 02:02:39;;;;;;;11.45;2.60;;;;;;;17.85;69.58;101622.41;4990601;28;20030;-38
2023/12/20 02:05:06;;;;;;;8.70;2.70;;;;;;;17.83;69.64;101630.06;5000930;28;20041;-36
2023/12/20 02:07:31;;;;;;;8.20;2.50;;;;;;;17.83;69.70;101619.09;5009181;28;20418;-36
2023/12/20 02:09:57;;;;;;;7.82;2.50;;;;;;;17.81;69.69;101628.41;5016001;28;20029;-38
2023/12/20 02:12:22;;;;;;;6.68;2.53;;;;;;;17.80;69.51;101618.53;5012310;28;20140;-36
2023/12/20 02:14:48;;;;;;;6.45;2.30;;;;;;;17.79;69.34;101627.84;5017069;28;20030;-37
2023/12/20 02:17:14;;;;;;;8.65;2.55;;;;;;;17.79;69.70;101636.06;4987287;28;20422;-39
2023/12/20 02:19:39;;;;;;;6.97;2.38;;;;;;;17.78;69.49;101631.69;5002913;28;20030;-37
2023/12/20 02:22:14;;;;;;;9.68;2.75;;;;;;;17.77;69.55;101619.03;5003408;28;20053;-37
2023/12/20 02:24:39;;;;;;;6.60;2.90;;;;;;;17.77;69.78;101624.53;4998359;28;20145;-38
2023/12/20 02:27:06;;;;;;;9.10;2.42;;;;;;;17.78;69.62;101623.44;4984377;28;20056;-38
2023/12/20 02:29:33;;;;;;;8.60;2.80;;;;;;;17.78;69.74;101617.97;4984859;28;20026;-37
2023/12/20 02:31:58;;;;;;;9.18;2.50;;;;;;;17.78;69.41;101606.16;4981233;28;20030;-38
2023/12/20 02:34:23;;;;;;;8.48;2.42;;;;;;;17.76;69.39;101611.91;4986609;28;20040;-36
2023/12/20 02:36:49;;;;;;;7.93;2.50;;;;;;;17.75;69.61;101604.75;4980253;28;20034;-36
2023/12/20 02:39:14;;;;;;;12.55;2.67;;;;;;;17.75;69.34;101603.94;4981258;28;20037;-39
2023/12/20 02:41:39;;;;;;;8.60;2.78;;;;;;;17.74;69.08;101622.31;4981587;28;20026;-38
2023/12/20 02:44:05;;;;;;;10.98;2.53;;;;;;;17.75;69.07;101606.69;4983139;28;20064;-38
2023/12/20 02:46:30;;;;;;;9.57;2.92;;;;;;;17.74;69.10;101614.09;4984201;28;20058;-39
2023/12/20 02:48:55;;;;;;;7.53;2.42;;;;;;;17.73;69.14;101606.94;4979864;28;20038;-39
2023/12/20 02:51:21;;;;;;;8.38;2.42;;;;;;;17.72;69.15;101594.31;4982338;28;20028;-38
2023/12/20 02:53:46;;;;;;;7.15;2.83;;;;;;;17.71;69.31;101592.66;4979628;28;20423;-39
2023/12/20 02:56:12;;;;;;;8.80;2.60;;;;;;;17.68;68.94;101590.41;4963799;28;20038;-39
2023/12/20 02:58:37;;;;;;;8.43;2.65;;;;;;;17.69;69.29;101583.84;4983126;28;20162;-38
2023/12/20 03:01:03;;;;;;;10.60;2.92;;;;;;;17.69;69.07;101580.28;4948340;28;20501;-39
2023/12/20 03:03:28;;;;;;;9.52;2.67;;;;;;;17.68;68.94;101579.44;4981634;28;20578;-39
2023/12/20 03:05:53;;;;;;;10.48;2.83;;;;;;;17.68;69.09;101582.19;4981130;28;20049;-39
2023/12/20 03:08:19;;;;;;;11.65;2.55;;;;;;;17.69;69.25;101580.28;4982617;28;20534;-39
2023/12/20 03:10:44;;;;;;;10.43;2.47;;;;;;;17.68;69.09;101582.19;4983092;28;20519;-39
2023/12/20 03:13:10;;;;;;;8.52;2.70;;;;;;;17.68;68.85;101595.06;4984073;28;20034;-39
2023/12/20 03:15:35;;;;;;;8.73;2.58;;;;;;;17.67;69.19;101591.53;4981129;28;20033;-39
2023/12/20 03:18:01;;;;;;;6.57;2.60;;;;;;;17.67;68.80;101588.78;4967697;28;20170;-38
2023/12/20 03:20:27;;;;;;;7.97;2.25;;;;;;;17.67;68.70;101583.28;4982637;28;20037;-39
2023/12/20 03:22:52;;;;;;;8.05;2.40;;;;;;;17.66;68.84;101592.59;4965169;28;20383;-38
2023/12/20 03:25:17;;;;;;;9.00;2.58;;;;;;;17.65;69.03;101593.69;4998226;28;20599;-39
2023/12/20 03:27:43;;;;;;;11.50;2.75;;;;;;;17.65;68.87;101585.47;5015702;28;20397;-37
2023/12/20 03:30:08;;;;;;;10.52;2.63;;;;;;;17.64;68.52;101583.78;5002848;28;20033;-39
2023/12/20 03:32:34;;;;;;;8.85;2.78;;;;;;;17.63;68.76;101582.97;5006443;28;20330;-39
2023/12/20 03:34:59;;;;;;;8.43;2.63;;;;;;;17.63;68.75;101587.63;5005956;28;20056;-36
2023/12/20 03:37:25;;;;;;;7.90;2.53;;;;;;;17.62;68.66;101589.53;5003969;28;20038;-37
2023/12/20 03:39:50;;;;;;;9.80;2.85;;;;;;;17.61;68.90;101592.56;5002417;28;20153;-36
2023/12/20 03:42:15;;;;;;;7.30;2.40;;;;;;;17.61;68.91;101585.13;5011382;28;20068;-39
2023/12/20 03:44:41;;;;;;;13.10;2.83;;;;;;;17.61;68.62;101590.63;5000834;28;20498;-38
2023/12/20 03:47:07;;;;;;;10.15;2.80;;;;;;;17.60;68.76;101583.47;4982381;28;20155;-37
2023/12/20 03:49:32;;;;;;;9.25;2.70;;;;;;;17.59;68.46;101573.59;5003084;28;20431;-37
2023/12/20 03:51:58;;;;;;;10.73;2.67;;;;;;;17.59;68.33;101575.53;5004342;28;20055;-37
2023/12/20 03:54:24;;;;;;;6.35;2.40;;;;;;;17.58;68.59;101580.19;5008220;28;20030;-38
2023/12/20 03:56:50;;;;;;;10.30;2.83;;;;;;;17.57;68.88;101574.94;4999510;28;20045;-38
2023/12/20 03:59:15;;;;;;;7.50;2.50;;;;;;;17.56;68.53;101576.88;5005246;28;20056;-36
2023/12/20 04:01:44;;;;;;;10.38;2.80;;;;;;;17.56;68.65;101571.38;5004345;28;20485;-38
2023/12/20 04:04:10;;;;;;;9.43;2.70;;;;;;;17.55;68.58;101577.13;4994213;28;20034;-37
2023/12/20 04:06:36;;;;;;;9.63;2.72;;;;;;;17.54;68.72;101567.25;5005622;28;20027;-36
2023/12/20 04:09:01;;;;;;;6.63;2.67;;;;;;;17.53;68.42;101566.41;5000871;28;20045;-36
2023/12/20 04:11:27;;;;;;;9.30;3.05;;;;;;;17.53;68.47;101576.53;5004189;28;20064;-36
2023/12/20 04:13:52;;;;;;;8.90;2.60;;;;;;;17.52;68.67;101581.19;5006463;28;20040;-36
2023/12/20 04:16:18;;;;;;;10.07;2.92;;;;;;;17.52;68.66;101577.63;5005422;28;20059;-39
2023/12/20 04:18:43;;;;;;;7.97;2.50;;;;;;;17.51;68.49;101576.81;5003261;28;20037;-35
2023/12/20 04:21:08;;;;;;;7.47;2.67;;;;;;;17.51;68.61;101573.22;4999501;28;20036;-38
2023/12/20 04:23:34;;;;;;;7.72;2.95;;;;;;;17.51;68.61;101570.47;5001002;28;20140;-38
2023/12/20 04:25:59;;;;;;;8.73;2.63;;;;;;;17.49;68.66;101570.75;5004233;28;20064;-37
2023/12/20 04:28:25;;;;;;;9.07;2.80;;;;;;;17.49;68.60;101568.00;5000714;28;20038;-38
2023/12/20 04:30:50;;;;;;;9.35;2.97;;;;;;;17.48;68.45;101556.22;4999040;28;20046;-37
2023/12/20 04:33:15;;;;;;;9.68;2.58;;;;;;;17.47;68.54;101573.75;5005928;28;20040;-36
2023/12/20 04:35:42;;;;;;;6.80;2.55;;;;;;;17.48;68.29;101560.88;5000113;28;20029;-39
2023/12/20 04:38:08;;;;;;;7.30;2.40;;;;;;;17.47;68.56;101560.03;5003558;28;20097;-39
2023/12/20 04:40:33;;;;;;;10.25;2.83;;;;;;;17.46;68.51;101550.16;5001486;28;20109;-35
2023/12/20 04:42:59;;;;;;;7.40;2.80;;;;;;;17.46;68.54;101550.16;5005148;28;20145;-36
2023/12/20 04:45:24;;;;;;;10.38;2.70;;;;;;;17.46;68.17;101547.44;5001368;28;20022;-37
2023/12/20 04:47:50;;;;;;;9.30;2.92;;;;;;;17.45;68.25;101545.75;5004543;28;20022;-38
2023/12/20 04:50:19;;;;;;;7.63;2.50;;;;;;;17.45;68.47;101543.03;5004168;28;20028;-39
2023/12/20 04:52:45;;;;;;;10.27;3.30;;;;;;;17.44;68.52;101537.81;5008260;28;20029;-36
2023/12/20 04:55:10;;;;;;;9.85;2.85;;;;;;;17.47;68.29;101532.63;5006985;28;20346;-36
2023/12/20 04:57:35;;;;;;;6.85;2.50;;;;;;;17.51;68.66;101540.34;5011322;28;20058;-36
2023/12/20 05:00:01;;;;;;;9.98;2.50;;;;;;;17.56;68.41;101535.75;5001904;28;20045;-36
2023/12/20 05:02:26;;;;;;;11.27;2.83;;;;;;;17.63;68.24;101533.63;5004162;28;20032;-37
2023/12/20 05:04:52;;;;;;;8.75;2.78;;;;;;;17.69;68.21;101539.16;5004267;28;20026;-39
2023/12/20 05:07:17;;;;;;;6.30;2.55;;;;;;;17.78;67.91;101548.56;5004797;28;20034;-36
2023/12/20 05:09:42;;;;;;;6.25;2.40;;;;;;;17.86;67.92;101552.78;5005064;28;20046;-37
2023/12/20 05:12:08;;;;;;;7.75;2.63;;;;;;;17.93;68.00;101558.91;5007363;28;20175;-37
2023/12/20 05:14:33;;;;;;;10.77;2.75;;;;;;;18.02;67.63;101565.59;5006046;28;20044;-37
2023/12/20 05:16:59;;;;;;;8.02;2.60;;;;;;;18.11;67.65;101564.03;4988143;28;20453;-36
2023/12/20 05:19:24;;;;;;;9.52;2.80;;;;;;;18.21;67.59;101562.47;5004174;28;20030;-37
2023/12/20 05:21:50;;;;;;;9.40;2.85;;;;;;;18.31;67.47;101565.31;5012106;28;20259;-37
2023/12/20 05:24:15;;;;;;;7.68;2.80;;;;;;;18.42;67.43;101568.97;5005628;28;20042;-38
2023/12/20 05:26:41;;;;;;;5.97;2.78;;;;;;;18.51;67.20;101556.41;5011669;28;20036;-38
2023/12/20 05:29:06;;;;;;;6.30;2.50;;;;;;;18.63;67.02;101561.72;5006166;28;20049;-40
2023/12/20 05:31:31;;;;;;;8.48;2.70;;;;;;;18.73;66.62;101548.03;5007696;28;20472;-39
2023/12/20 05:33:57;;;;;;;8.27;3.05;;;;;;;18.83;66.52;101555.50;5002881;28;20077;-39
2023/12/20 05:36:22;;;;;;;8.32;2.92;;;;;;;18.93;66.49;101549.28;5001856;28;20102;-39
2023/12/20 05:38:48;;;;;;;10.32;3.08;;;;;;;19.02;66.13;101547.69;5001957;28;20629;-39
2023/12/20 05:41:13;;;;;;;9.20;2.97;;;;;;;19.10;66.38;101538.13;4994800;28;20029;-39
2023/12/20 05:43:39;;;;;;;8.15;2.90;;;;;;;19.15;66.09;101548.31;5006295;28;20022;-38
2023/12/20 05:46:05;;;;;;;7.63;2.75;;;;;;;19.19;65.95;101538.44;5001948;28;20025;-38
2023/12/20 05:48:30;;;;;;;11.15;3.28;;;;;;;19.18;65.70;101532.13;5005570;28;20651;-38
2023/12/20 05:50:56;;;;;;;9.30;3.10;;;;;;;19.20;65.61;101532.69;5006296;28;20524;-38
2023/12/20 05:53:21;;;;;;;7.53;2.78;;;;;;;19.19;65.71;101532.94;5001591;28;20033;-39
2023/12/20 05:55:47;;;;;;;9.38;3.20;;;;;;;19.18;65.34;101543.09;5005612;28;20044;-37
2023/12/20 05:58:12;;;;;;;8.50;2.97;;;;;;;19.17;65.39;101543.38;5000021;28;20026;-36
2023/12/20 06:00:38;;;;;;;9.52;2.53;;;;;;;19.15;65.43;101551.88;5002165;28;20036;-39
2023/12/20 06:03:04;;;;;;;6.82;3.00;;;;;;;19.13;65.30;101545.84;5002979;28;20034;-39
2023/12/20 06:05:30;;;;;;;8.85;3.03;;;;;;;19.10;65.46;101549.09;5003492;28;20105;-38
2023/12/20 06:08:01;;;;;;;10.90;2.85;;;;;;;19.11;65.32;101560.94;5004844;28;20391;-38
2023/12/20 06:10:26;;;;;;;10.98;3.20;;;;;;;19.08;65.40;101543.88;5005050;28;20104;-38
2023/12/20 06:12:52;;;;;;;11.63;3.00;;;;;;;19.07;65.23;101541.41;5000806;28;20475;-38
2023/12/20 06:15:17;;;;;;;8.52;2.83;;;;;;;19.05;65.31;101544.41;5005688;28;20034;-35
2023/12/20 06:17:42;;;;;;;14.40;3.10;;;;;;;19.03;65.63;101548.50;5008023;28;20079;-37
2023/12/20 06:20:09;;;;;;;8.52;2.88;;;;;;;19.00;65.36;101555.38;4989544;28;20048;-36
2023/12/20 06:22:35;;;;;;;8.57;2.72;;;;;;;18.99;65.50;101550.16;5004064;28;20054;-38
2023/12/20 06:25:00;;;;;;;9.45;3.20;;;;;;;18.95;65.55;101541.63;5011450;28;20167;-36
2023/12/20 06:27:25;;;;;;;9.32;2.80;;;;;;;18.94;65.60;101537.22;5005500;28;20510;-39
2023/12/20 06:29:51;;;;;;;9.63;3.22;;;;;;;18.92;65.81;101542.16;5007195;28;20025;-39
2023/12/20 06:32:16;;;;;;;8.05;3.05;;;;;;;18.89;65.51;101554.44;5004689;28;20132;-39
2023/12/20 06:34:42;;;;;;;9.15;3.15;;;;;;;18.88;65.74;101549.22;5007314;28;20411;-36
2023/12/20 06:37:07;;;;;;;7.40;2.65;;;;;;;18.85;65.50;101533.31;4985571;28;20157;-38
2023/12/20 06:39:33;;;;;;;9.82;2.83;;;;;;;18.85;65.53;101539.59;5001461;28;20402;-37
2023/12/20 06:41:59;;;;;;;8.50;2.70;;;;;;;18.84;65.63;101539.88;5002346;28;20018;-37
2023/12/20 06:44:25;;;;;;;8.50;2.88;;;;;;;18.83;65.64;101535.47;5002855;28;20149;-37
2023/12/20 06:46:50;;;;;;;8.20;2.75;;;;;;;18.83;65.71;101540.97;4974048;28;20054;-39
2023/12/20 06:49:15;;;;;;;9.05;2.67;;;;;;;18.83;65.50;101539.03;5005452;28;20036;-39
2023/12/20 06:51:41;;;;;;;7.60;2.75;;;;;;;18.83;65.91;101533.53;5002220;28;20041;-38
2023/12/20 06:54:07;;;;;;;7.43;2.60;;;;;;;18.85;65.89;101516.81;5006779;28;20032;-39
2023/12/20 06:56:32;;;;;;;8.27;2.85;;;;;;;18.86;65.51;101527.53;5003018;28;20021;-38
2023/12/20 06:58:57;;;;;;;7.70;2.63;;;;;;;18.87;65.39;101526.44;4993295;28;20033;-37
2023/12/20 07:01:23;;;;;;;8.77;2.83;;;;;;;18.89;65.69;101534.41;5002679;28;20038;-37
2023/12/20 07:03:48;;;;;;;8.48;3.05;;;;;;;18.90;65.65;101522.34;5007049;28;20041;-37
2023/12/20 07:06:16;;;;;;;7.43;2.60;;;;;;;18.92;65.55;101500.97;4994998;28;20381;-37
2023/12/20 07:08:41;;;;;;;9.25;2.80;;;;;;;18.92;65.31;101515.50;5007115;28;20490;-37
2023/12/20 07:11:06;;;;;;;8.13;2.85;;;;;;;18.92;65.56;101499.03;4997922;28;20030;-40
2023/12/20 07:13:32;;;;;;;7.90;3.22;;;;;;;18.93;65.52;101513.59;5000614;28;20034;-39
2023/12/20 07:15:57;;;;;;;7.82;2.50;;;;;;;18.95;65.47;101511.41;5004558;28;20478;-40
2023/12/20 07:18:23;;;;;;;10.35;2.80;;;;;;;18.96;65.32;101506.72;5008094;28;20029;-37
2023/12/20 07:20:48;;;;;;;8.32;2.67;;;;;;;18.96;65.46;101503.97;5008907;28;20039;-38
2023/12/20 07:23:13;;;;;;;9.65;2.92;;;;;;;18.98;65.42;101507.28;5007106;28;20034;-39
2023/12/20 07:25:39;;;;;;;10.07;2.75;;;;;;;18.96;65.23;101498.47;4994527;28;20050;-39
2023/12/20 07:28:05;;;;;;;6.72;3.05;;;;;;;18.96;65.47;101501.22;5002499;28;20073;-39
2023/12/20 07:30:30;;;;;;;10.68;2.90;;;;;;;18.93;65.53;101505.34;4984140;28;20173;-39
2023/12/20 07:32:56;;;;;;;8.40;2.55;;;;;;;18.92;65.40;101506.47;5000316;28;20040;-38
2023/12/20 07:35:22;;;;;;;12.48;3.03;;;;;;;18.92;65.42;101503.72;5005691;28;20570;-38
2023/12/20 07:37:48;;;;;;;10.68;2.88;;;;;;;18.91;65.33;101515.78;5003232;28;20394;-39
2023/12/20 07:40:13;;;;;;;12.85;2.67;;;;;;;18.88;65.15;101511.63;5001085;28;20506;-39
2023/12/20 07:42:40;;;;;;;9.25;2.88;;;;;;;18.87;65.21;101515.47;5007041;28;20372;-38
2023/12/20 07:45:05;;;;;;;7.80;2.58;;;;;;;18.87;65.68;101525.59;5004527;28;20409;-38
2023/12/20 07:47:31;;;;;;;8.55;3.13;;;;;;;18.84;65.51;101528.91;5010955;28;20124;-39
2023/12/20 07:49:56;;;;;;;6.75;2.55;;;;;;;18.84;65.53;101539.88;4984893;28;20279;-40
2023/12/20 07:52:22;;;;;;;7.80;2.53;;;;;;;18.82;65.61;101542.91;4983687;28;20033;-37
2023/12/20 07:54:48;;;;;;;8.23;3.05;;;;;;;18.81;65.61;101534.91;4999753;28;20030;-38
2023/12/20 07:57:13;;;;;;;14.20;3.35;;;;;;;18.80;65.36;101533.25;5002132;28;20029;-38
2023/12/20 07:59:38;;;;;;;9.52;3.25;;;;;;;18.77;65.38;101537.34;5003254;28;20050;-37
2023/12/20 08:02:04;;;;;;;7.75;2.80;;;;;;;18.77;65.60;101551.94;5001044;28;20545;-37
2023/12/20 08:04:32;;;;;;;6.68;2.55;;;;;;;18.76;65.51;101552.16;5000351;28;20038;-37
2023/12/20 08:06:58;;;;;;;7.30;3.00;;;;;;;18.74;65.45;101548.88;4985794;28;20069;-39
2023/12/20 08:09:23;;;;;;;7.63;2.88;;;;;;;18.72;65.28;101546.41;5000206;28;20058;-39
2023/12/20 08:11:49;;;;;;;9.15;2.80;;;;;;;18.71;65.78;101552.16;5006912;28;20121;-39
2023/12/20 08:14:14;;;;;;;8.27;2.70;;;;;;;18.69;65.63;101552.41;5004298;28;20038;-37
2023/12/20 08:16:40;;;;;;;9.15;3.05;;;;;;;18.68;65.58;101548.00;5005927;28;20541;-38
2023/12/20 08:19:05;;;;;;;9.82;2.70;;;;;;;18.66;65.63;101535.63;5010420;28;20439;-37
2023/12/20 08:21:31;;;;;;;8.25;2.55;;;;;;;18.65;65.78;101540.31;5007332;28;20029;-37
2023/12/20 08:23:56;;;;;;;10.63;3.05;;;;;;;18.64;65.72;101535.91;5004272;28;20513;-37
2023/12/20 08:26:24;;;;;;;8.45;2.90;;;;;;;18.64;65.71;101529.56;5007316;28;20026;-36
2023/12/20 08:28:50;;;;;;;6.45;2.60;;;;;;;18.65;65.71;101520.25;4986430;28;20085;-37
2023/12/20 08:31:16;;;;;;;7.50;2.60;;;;;;;18.65;65.57;101531.25;5005882;28;20033;-36
2023/12/20 08:33:44;;;;;;;7.80;2.47;;;;;;;18.65;65.79;101531.25;5003942;28;20026;-37
2023/12/20 08:36:10;;;;;;;8.35;2.65;;;;;;;18.64;65.76;101521.34;4988008;28;20026;-36
2023/12/20 08:38:35;;;;;;;8.85;2.92;;;;;;;18.63;65.92;101537.00;5003123;28;20622;-36
2023/12/20 08:41:02;;;;;;;7.72;2.47;;;;;;;18.64;65.89;101544.16;5008626;28;20029;-37
2023/12/20 08:43:28;;;;;;;9.20;2.67;;;;;;;18.64;65.66;101551.53;5001117;28;20398;-39
2023/12/20 08:45:53;;;;;;;9.32;3.00;;;;;;;18.63;65.82;101549.91;5002522;28;20491;-39
2023/12/20 08:48:19;;;;;;;6.55;2.50;;;;;;;18.62;65.94;101549.06;5006282;28;20030;-38
2023/12/20 08:50:44;;;;;;;10.23;3.25;;;;;;;18.61;65.80;101569.38;5009824;28;20021;-39
2023/12/20 08:53:10;;;;;;;6.40;2.55;;;;;;;18.60;65.86;101545.75;5005313;28;20490;-38
2023/12/20 08:55:35;;;;;;;7.72;2.47;;;;;;;18.59;65.70;101549.63;5002685;28;20033;-39
2023/12/20 08:58:00;;;;;;;6.28;2.92;;;;;;;18.57;66.00;101547.09;5005296;28;20034;-39
2023/12/20 09:00:27;;;;;;;9.05;2.75;;;;;;;18.58;65.92;101550.69;5005431;28;20116;-39
2023/12/20 09:02:54;;;;;;;10.20;3.03;;;;;;;18.56;65.76;101545.44;5005004;28;20546;-39
2023/12/20 09:05:19;;;;;;;12.25;3.28;;;;;;;18.54;65.88;101539.41;4984774;28;20441;-37
2023/12/20 09:07:45;;;;;;;10.45;2.80;;;;;;;18.54;65.93;101541.31;5005212;28;20091;-37
2023/12/20 09:10:10;;;;;;;14.98;2.83;;;;;;;18.55;66.38;101541.06;5005924;28;20030;-41
2023/12/20 09:12:39;;;;;;;20.73;3.15;;;;;;;18.58;67.07;101535.03;5009459;28;20108;-40
2023/12/20 09:15:05;;;;;;;16.17;3.30;;;;;;;18.62;67.21;101540.03;5002858;28;20036;-39
2023/12/20 09:17:30;;;;;;;15.50;3.33;;;;;;;18.64;67.39;101529.56;5007042;28;20049;-39
2023/12/20 09:19:56;;;;;;;8.85;3.03;;;;;;;18.68;67.43;101544.44;5000765;28;20539;-39
2023/12/20 09:22:21;;;;;;;10.52;2.80;;;;;;;18.72;67.30;101537.31;4986861;28;20061;-40
2023/12/20 09:24:47;;;;;;;13.70;3.60;;;;;;;18.74;67.54;101538.72;5002801;28;20258;-40
2023/12/20 09:27:12;;;;;;;12.20;2.85;;;;;;;18.78;67.49;101541.75;5003946;28;20404;-38
2023/12/20 09:29:38;;;;;;;11.77;2.40;;;;;;;18.81;67.45;101537.66;5002510;28;20032;-38
2023/12/20 09:32:03;;;;;;;8.40;2.85;;;;;;;18.83;67.39;101538.22;5003353;28;20095;-39
2023/12/20 09:34:29;;;;;;;8.02;2.65;;;;;;;18.86;67.30;101545.91;5005585;28;20597;-38
2023/12/20 09:36:54;;;;;;;10.65;2.47;;;;;;;18.88;67.09;101543.75;5006969;28;20041;-39
2023/12/20 09:39:21;;;;;;;7.82;2.47;;;;;;;18.89;67.19;101537.97;5003952;28;20022;-39
2023/12/20 09:41:59;;;;;;;11.70;2.72;;;;;;;18.92;67.08;101533.94;5000556;28;20176;-37
2023/12/20 09:44:24;;;;;;;9.00;2.67;;;;;;;18.94;67.07;101539.97;5004240;28;20773;-39
2023/12/20 09:46:50;;;;;;;8.63;2.92;;;;;;;18.96;66.92;101539.69;5002423;28;20076;-38
2023/12/20 09:49:18;;;;;;;13.98;2.65;;;;;;;18.99;66.91;101555.66;5003501;28;20022;-37
2023/12/20 09:51:46;;;;;;;9.70;2.88;;;;;;;19.01;66.61;101558.97;4999810;28;20057;-37
2023/12/20 09:54:15;;;;;;;6.93;2.65;;;;;;;19.02;66.64;101553.19;5001217;28;20034;-37
2023/12/20 09:56:41;;;;;;;9.60;2.70;;;;;;;19.05;66.46;101557.31;5002044;28;20218;-37
2023/12/20 09:59:06;;;;;;;11.70;2.85;;;;;;;19.08;66.09;101559.56;5003229;28;20042;-37
2023/12/20 10:01:32;;;;;;;12.07;3.33;;;;;;;19.09;66.00;101547.44;4997853;28;20025;-38
2023/12/20 10:03:59;;;;;;;10.60;2.67;;;;;;;19.12;65.82;101546.13;5005486;28;20454;-38
2023/12/20 10:06:24;;;;;;;7.95;2.55;;;;;;;19.14;65.69;101543.91;4981634;28;20096;-37
2023/12/20 10:08:49;;;;;;;13.90;3.30;;;;;;;19.18;65.71;101545.84;5006124;28;20033;-37
2023/12/20 10:11:15;;;;;;;7.45;2.83;;;;;;;19.22;65.63;101537.91;4997844;28;20022;-36
2023/12/20 10:13:41;;;;;;;9.75;3.05;;;;;;;19.27;65.25;101537.91;4987781;28;20034;-38
2023/12/20 10:16:10;;;;;;;9.52;3.17;;;;;;;19.31;65.45;101547.31;5002326;28;20394;-38
2023/12/20 10:18:35;;;;;;;8.38;2.88;;;;;;;19.37;65.25;101545.38;5002508;28;20022;-38
2023/12/20 10:21:01;;;;;;;8.43;2.85;;;;;;;19.39;65.47;101549.50;4984893;28;20101;-41
2023/12/20 10:23:26;;;;;;;9.98;3.00;;;;;;;19.42;65.32;101531.66;5009960;28;20044;-40
2023/12/20 10:25:59;;;;;;;8.88;2.92;;;;;;;19.46;65.18;101545.69;4987806;28;20037;-38
2023/12/20 10:28:27;;;;;;;6.13;2.40;;;;;;;19.47;65.02;101539.94;5007513;28;20041;-38
2023/12/20 10:30:53;;;;;;;13.02;3.30;;;;;;;19.49;65.08;101532.22;4997857;28;20030;-37
2023/12/20 10:33:28;;;;;;;8.38;3.00;;;;;;;19.51;64.86;101535.53;5001005;28;20030;-40
2023/12/20 10:35:56;;;;;;;8.77;2.70;;;;;;;19.53;64.85;101538.00;5004702;28;20121;-39
2023/12/20 10:38:22;;;;;;;10.82;2.60;;;;;;;19.54;64.87;101540.47;5001231;28;20139;-38
2023/12/20 10:40:47;;;;;;;8.90;2.92;;;;;;;19.55;64.70;101531.13;4982777;28;20475;-41
2023/12/20 10:43:16;;;;;;;9.77;2.90;;;;;;;19.56;64.45;101529.22;4977958;28;20342;-39
2023/12/20 10:45:43;;;;;;;13.30;3.42;;;;;;;19.56;64.46;101516.28;4996516;28;20422;-38
2023/12/20 10:48:10;;;;;;;8.02;2.58;;;;;;;19.57;64.41;101519.91;5002772;28;20052;-38
2023/12/20 10:50:38;;;;;;;7.82;2.67;;;;;;;19.56;64.45;101499.00;4991176;28;20105;-38
2023/12/20 10:53:03;;;;;;;6.88;2.60;;;;;;;19.58;64.59;101498.72;4996916;28;20458;-38
2023/12/20 10:55:29;;;;;;;8.57;2.70;;;;;;;19.58;64.50;101499.53;4975777;28;20117;-37
2023/12/20 10:58:00;;;;;;;7.70;2.90;;;;;;;19.59;64.44;101492.13;4983618;28;20056;-41
2023/12/20 11:00:26;;;;;;;8.50;2.80;;;;;;;19.60;64.33;101500.09;4982188;28;20021;-40
2023/12/20 11:02:51;;;;;;;7.97;3.10;;;;;;;19.61;64.04;101500.91;5005829;28;20029;-39
2023/12/20 11:05:25;;;;;;;7.63;2.72;;;;;;;19.62;64.15;101494.31;4997998;28;20029;-39
2023/12/20 11:08:03;;;;;;;7.10;2.50;;;;;;;19.63;64.46;101484.97;4997361;28;20038;-39
2023/12/20 11:10:42;;;;;;;10.10;2.92;;;;;;;19.65;64.07;101489.09;4979396;28;20076;-39
2023/12/20 11:13:17;;;;;;;5.82;2.47;;;;;;;19.67;64.61;101486.09;4968951;28;20033;-38
2023/12/20 11:15:43;;;;;;;7.80;2.85;;;;;;;19.68;64.31;101480.31;4980009;28;20061;-38
2023/12/20 11:18:08;;;;;;;7.53;2.78;;;;;;;19.71;64.45;101481.69;4992874;28;20485;-39